createdAt,value
2018-12-20T00:00:46.640Z,69.95
2018-12-20T00:01:49.191Z,69.73
2018-12-20T00:04:00.579Z,69.52
2018-12-20T00:05:03.251Z,69.13
2018-12-20T00:06:05.844Z,69.10
2018-12-20T00:07:08.606Z,69.75
2018-12-20T00:08:11.146Z,69.61
2018-12-20T00:09:13.597Z,69.37
2018-12-20T00:10:16.250Z,69.22
2018-12-20T00:11:18.913Z,68.68
2018-12-20T00:12:21.394Z,68.95
2018-12-20T00:13:23.842Z,68.96
2018-12-20T00:14:29.849Z,69.49
2018-12-20T00:15:30.794Z,69.09
2018-12-20T00:16:33.325Z,69.08
2018-12-20T00:17:41.664Z,69.21
2018-12-20T00:18:44.149Z,68.92
2018-12-20T00:19:46.628Z,68.66
2018-12-20T00:20:49.201Z,68.91
2018-12-20T00:21:51.635Z,68.80
2018-12-20T00:22:54.146Z,69.05
2018-12-20T00:23:56.665Z,69.00
2018-12-20T00:24:59.391Z,69.74
2018-12-20T00:26:01.935Z,69.59
2018-12-20T00:27:04.491Z,69.42
2018-12-20T00:28:07.144Z,69.57
2018-12-20T00:29:09.719Z,69.57
2018-12-20T00:30:12.436Z,69.14
2018-12-20T00:31:14.978Z,69.62
2018-12-20T00:32:17.428Z,69.58
2018-12-20T00:33:19.969Z,69.08
2018-12-20T00:34:22.657Z,69.45
2018-12-20T00:35:25.226Z,68.78
2018-12-20T00:36:27.931Z,69.54
2018-12-20T00:37:30.459Z,69.27
2018-12-20T00:38:33.257Z,69.43
2018-12-20T00:39:35.822Z,69.17
2018-12-20T00:40:38.448Z,69.24
2018-12-20T00:41:41.100Z,69.70
2018-12-20T00:42:43.779Z,69.32
2018-12-20T00:43:46.450Z,69.48
2018-12-20T00:44:48.929Z,69.55
2018-12-20T00:45:51.575Z,69.42
2018-12-20T00:46:54.162Z,69.55
2018-12-20T00:47:56.650Z,69.56
2018-12-20T00:48:59.227Z,69.47
2018-12-20T00:50:01.884Z,69.39
2018-12-20T00:51:04.485Z,69.33
2018-12-20T00:52:07.046Z,69.06
2018-12-20T00:53:09.628Z,69.43
2018-12-20T00:54:12.145Z,69.59
2018-12-20T00:55:14.584Z,69.37
2018-12-20T00:56:17.185Z,69.65
2018-12-20T00:57:19.913Z,69.18
2018-12-20T00:58:22.655Z,69.28
2018-12-20T00:59:25.190Z,69.64
2018-12-20T01:00:27.780Z,69.76
2018-12-20T01:01:30.360Z,69.40
2018-12-20T01:02:32.834Z,69.75
2018-12-20T01:03:35.387Z,69.74
2018-12-20T01:04:37.987Z,70.00
2018-12-20T01:05:40.742Z,70.25
2018-12-20T01:06:43.293Z,70.04
2018-12-20T01:07:45.768Z,69.48
2018-12-20T01:08:48.317Z,69.37
2018-12-20T01:09:50.856Z,69.65
2018-12-20T01:10:53.414Z,69.48
2018-12-20T01:11:55.908Z,69.24
2018-12-20T01:12:58.438Z,69.58
2018-12-20T01:14:01.011Z,69.38
2018-12-20T01:15:04.610Z,69.41
2018-12-20T01:16:07.091Z,69.29
2018-12-20T01:17:09.631Z,69.54
2018-12-20T01:18:12.305Z,69.82
2018-12-20T01:19:14.976Z,69.34
2018-12-20T01:20:17.621Z,69.47
2018-12-20T01:21:20.270Z,69.31
2018-12-20T01:22:22.970Z,69.35
2018-12-20T01:23:25.690Z,69.80
2018-12-20T01:24:28.149Z,70.13
2018-12-20T01:25:30.758Z,69.77
2018-12-20T01:26:33.251Z,69.85
2018-12-20T01:27:35.921Z,70.31
2018-12-20T01:28:38.489Z,69.84
2018-12-20T01:29:41.085Z,70.39
2018-12-20T01:30:43.600Z,69.90
2018-12-20T01:31:46.215Z,69.91
2018-12-20T01:32:48.956Z,70.38
2018-12-20T01:33:51.627Z,69.91
2018-12-20T01:34:54.202Z,69.94
2018-12-20T01:35:56.951Z,70.15
2018-12-20T01:36:59.487Z,69.93
2018-12-20T01:38:01.948Z,70.00
2018-12-20T01:39:06.005Z,70.33
2018-12-20T01:40:08.619Z,70.44
2018-12-20T01:41:11.055Z,70.31
2018-12-20T01:42:13.507Z,70.48
2018-12-20T01:43:16.172Z,70.36
2018-12-20T01:44:18.832Z,70.63
2018-12-20T01:45:21.386Z,70.60
2018-12-20T01:46:24.006Z,70.74
2018-12-20T01:47:26.515Z,71.18
2018-12-20T01:48:29.093Z,69.99
2018-12-20T01:49:31.840Z,70.96
2018-12-20T01:50:34.493Z,70.29
2018-12-20T01:51:37.048Z,70.66
2018-12-20T01:52:39.601Z,70.75
2018-12-20T01:53:42.202Z,70.30
2018-12-20T01:54:45.599Z,70.90
2018-12-20T01:55:48.237Z,70.58
2018-12-20T01:56:50.842Z,71.20
2018-12-20T01:57:53.291Z,71.25
2018-12-20T01:58:55.795Z,70.96
2018-12-20T01:59:58.448Z,71.23
2018-12-20T02:01:01.021Z,71.13
2018-12-20T02:02:03.522Z,71.63
2018-12-20T02:03:06.296Z,71.44
2018-12-20T02:04:08.938Z,71.63
2018-12-20T02:05:11.598Z,71.54
2018-12-20T02:06:14.161Z,71.21
2018-12-20T02:07:16.919Z,71.61
2018-12-20T02:08:19.387Z,71.05
2018-12-20T02:09:21.880Z,71.32
2018-12-20T02:10:24.432Z,71.62
2018-12-20T02:11:26.997Z,71.67
2018-12-20T02:12:29.457Z,71.78
2018-12-20T02:13:31.972Z,71.48
2018-12-20T02:14:34.540Z,71.85
2018-12-20T02:15:37.170Z,71.99
2018-12-20T02:16:39.732Z,72.34
2018-12-20T02:17:42.314Z,72.33
2018-12-20T02:18:44.954Z,71.65
2018-12-20T02:19:47.573Z,71.89
2018-12-20T02:20:50.110Z,72.45
2018-12-20T02:21:52.741Z,72.87
2018-12-20T02:22:55.359Z,72.33
2018-12-20T02:23:57.826Z,72.39
2018-12-20T02:25:00.441Z,72.76
2018-12-20T02:26:02.918Z,72.09
2018-12-20T02:27:05.354Z,72.32
2018-12-20T02:28:07.783Z,72.55
2018-12-20T02:29:10.247Z,72.30
2018-12-20T02:30:12.862Z,72.99
2018-12-20T02:31:15.943Z,71.66
2018-12-20T02:32:18.514Z,72.30
2018-12-20T02:33:21.351Z,72.96
2018-12-20T02:34:24.142Z,72.52
2018-12-20T02:35:26.704Z,72.35
2018-12-20T02:36:29.240Z,72.49
2018-12-20T02:37:31.742Z,72.27
2018-12-20T02:38:34.177Z,72.50
2018-12-20T02:39:36.629Z,72.47
2018-12-20T02:40:39.103Z,72.83
2018-12-20T02:41:41.639Z,72.40
2018-12-20T02:42:44.346Z,72.41
2018-12-20T02:43:47.004Z,73.05
2018-12-20T02:44:49.571Z,73.20
2018-12-20T02:45:52.201Z,72.85
2018-12-20T02:46:54.747Z,72.83
2018-12-20T02:47:57.606Z,72.74
2018-12-20T02:49:00.187Z,72.97
2018-12-20T02:50:02.820Z,73.29
2018-12-20T02:51:05.285Z,73.24
2018-12-20T02:52:07.754Z,73.35
2018-12-20T02:53:10.242Z,73.25
2018-12-20T02:54:12.919Z,73.30
2018-12-20T02:55:15.533Z,72.98
2018-12-20T02:56:18.245Z,73.14
2018-12-20T02:57:20.801Z,72.76
2018-12-20T02:58:23.296Z,73.23
2018-12-20T02:59:25.742Z,73.19
2018-12-20T03:00:28.660Z,72.99
2018-12-20T03:01:31.293Z,73.09
2018-12-20T03:02:33.744Z,73.47
2018-12-20T03:03:36.400Z,73.48
2018-12-20T03:04:38.950Z,74.19
2018-12-20T03:05:41.580Z,74.00
2018-12-20T03:06:44.071Z,73.42
2018-12-20T03:07:46.534Z,73.68
2018-12-20T03:08:48.982Z,73.80
2018-12-20T03:09:51.464Z,73.61
2018-12-20T03:10:54.008Z,73.84
2018-12-20T03:11:56.598Z,73.44
2018-12-20T03:12:59.291Z,73.25
2018-12-20T03:14:02.051Z,72.89
2018-12-20T03:15:05.330Z,73.12
2018-12-20T03:16:07.768Z,73.49
2018-12-20T03:17:10.226Z,73.35
2018-12-20T03:18:12.797Z,73.59
2018-12-20T03:19:15.354Z,73.20
2018-12-20T03:20:17.855Z,72.65
2018-12-20T03:21:20.335Z,73.31
2018-12-20T03:22:22.784Z,73.99
2018-12-20T03:23:25.272Z,73.66
2018-12-20T03:24:27.789Z,73.21
2018-12-20T03:25:30.224Z,73.52
2018-12-20T03:26:32.662Z,73.20
2018-12-20T03:27:35.125Z,73.41
2018-12-20T03:28:37.823Z,73.59
2018-12-20T03:29:40.383Z,73.79
2018-12-20T03:30:42.907Z,73.83
2018-12-20T03:31:45.346Z,73.56
2018-12-20T03:32:47.811Z,73.02
2018-12-20T03:33:50.773Z,73.81
2018-12-20T03:34:53.636Z,73.95
2018-12-20T03:35:56.212Z,73.32
2018-12-20T03:36:58.656Z,73.91
2018-12-20T03:38:01.242Z,73.75
2018-12-20T03:39:06.263Z,74.17
2018-12-20T03:40:08.791Z,74.33
2018-12-20T03:41:11.296Z,73.90
2018-12-20T03:42:14.072Z,74.24
2018-12-20T03:43:16.616Z,73.66
2018-12-20T03:44:19.069Z,74.32
2018-12-20T03:45:28.698Z,74.40
2018-12-20T03:46:25.955Z,74.52
2018-12-20T03:47:28.671Z,74.05
2018-12-20T03:48:31.280Z,74.41
2018-12-20T03:49:33.750Z,74.12
2018-12-20T03:50:36.256Z,74.00
2018-12-20T03:51:38.837Z,74.45
2018-12-20T03:52:41.465Z,74.35
2018-12-20T03:53:44.063Z,73.99
2018-12-20T03:54:46.705Z,73.97
2018-12-20T03:55:49.474Z,74.53
2018-12-20T03:56:52.013Z,73.86
2018-12-20T03:57:54.494Z,74.31
2018-12-20T03:58:57.038Z,74.58
2018-12-20T03:59:59.496Z,74.72
2018-12-20T04:01:02.031Z,73.93
2018-12-20T04:02:04.530Z,74.49
2018-12-20T04:03:07.142Z,74.14
2018-12-20T04:04:09.891Z,74.21
2018-12-20T04:05:12.374Z,74.35
2018-12-20T04:06:14.962Z,73.72
2018-12-20T04:07:17.686Z,73.93
2018-12-20T04:08:20.231Z,74.44
2018-12-20T04:09:22.986Z,74.34
2018-12-20T04:10:25.735Z,73.97
2018-12-20T04:11:28.442Z,73.98
2018-12-20T04:12:30.943Z,74.26
2018-12-20T04:13:33.469Z,74.37
2018-12-20T04:14:36.277Z,74.34
2018-12-20T04:15:39.253Z,74.32
2018-12-20T04:16:41.789Z,74.14
2018-12-20T04:17:44.233Z,74.00
2018-12-20T04:18:46.811Z,73.92
2018-12-20T04:19:49.287Z,73.85
2018-12-20T04:20:51.749Z,73.78
2018-12-20T04:21:54.576Z,73.59
2018-12-20T04:22:57.187Z,73.64
2018-12-20T04:23:59.768Z,74.04
2018-12-20T04:25:02.407Z,73.70
2018-12-20T04:26:04.858Z,73.90
2018-12-20T04:27:07.307Z,73.93
2018-12-20T04:28:09.784Z,73.51
2018-12-20T04:29:12.302Z,73.54
2018-12-20T04:30:14.794Z,74.56
2018-12-20T04:31:17.459Z,74.13
2018-12-20T04:32:20.078Z,73.83
2018-12-20T04:33:22.985Z,74.20
2018-12-20T04:34:25.759Z,73.74
2018-12-20T04:35:28.470Z,73.90
2018-12-20T04:36:31.051Z,73.85
2018-12-20T04:37:33.622Z,73.91
2018-12-20T04:38:36.291Z,74.14
2018-12-20T04:39:38.888Z,73.79
2018-12-20T04:40:41.462Z,74.27
2018-12-20T04:41:43.991Z,73.68
2018-12-20T04:42:46.618Z,74.25
2018-12-20T04:43:49.268Z,73.62
2018-12-20T04:44:51.796Z,73.29
2018-12-20T04:45:54.445Z,73.61
2018-12-20T04:46:57.343Z,73.99
2018-12-20T04:48:01.257Z,73.70
2018-12-20T04:49:04.013Z,73.61
2018-12-20T04:50:06.542Z,73.50
2018-12-20T04:51:09.026Z,73.99
2018-12-20T04:52:11.727Z,74.06
2018-12-20T04:53:14.226Z,73.60
2018-12-20T04:54:16.858Z,74.36
2018-12-20T04:55:19.530Z,74.50
2018-12-20T04:56:22.285Z,74.36
2018-12-20T04:57:24.787Z,74.29
2018-12-20T04:58:27.229Z,74.49
2018-12-20T04:59:29.677Z,74.28
2018-12-20T05:00:32.191Z,73.98
2018-12-20T05:01:34.807Z,74.48
2018-12-20T05:02:37.363Z,74.68
2018-12-20T05:03:40.243Z,74.16
2018-12-20T05:04:42.819Z,73.96
2018-12-20T05:05:45.388Z,74.49
2018-12-20T05:06:47.946Z,74.15
2018-12-20T05:07:50.470Z,74.05
2018-12-20T05:08:53.102Z,74.11
2018-12-20T05:09:55.788Z,74.25
2018-12-20T05:10:58.519Z,73.65
2018-12-20T05:12:00.978Z,74.00
2018-12-20T05:13:03.430Z,73.97
2018-12-20T05:14:05.975Z,74.14
2018-12-20T05:15:08.661Z,73.84
2018-12-20T05:16:11.252Z,74.04
2018-12-20T05:17:14.042Z,73.53
2018-12-20T05:18:16.526Z,73.58
2018-12-20T05:19:19.114Z,73.52
2018-12-20T05:20:21.732Z,73.50
2018-12-20T05:21:24.608Z,74.01
2018-12-20T05:22:27.277Z,73.89
2018-12-20T05:23:29.943Z,73.99
2018-12-20T05:24:32.862Z,74.03
2018-12-20T05:25:35.791Z,73.46
2018-12-20T05:26:38.610Z,73.57
2018-12-20T05:27:41.437Z,74.01
2018-12-20T05:28:44.141Z,73.93
2018-12-20T05:29:46.749Z,73.27
2018-12-20T05:30:49.236Z,73.61
2018-12-20T05:31:51.787Z,73.71
2018-12-20T05:32:54.342Z,73.87
2018-12-20T05:33:56.847Z,73.27
2018-12-20T05:34:59.635Z,73.43
2018-12-20T05:36:02.370Z,73.51
2018-12-20T05:37:05.095Z,73.21
2018-12-20T05:38:07.754Z,73.18
2018-12-20T05:39:10.298Z,73.42
2018-12-20T05:40:13.003Z,73.60
2018-12-20T05:41:15.641Z,73.21
2018-12-20T05:42:18.325Z,72.93
2018-12-20T05:43:20.934Z,72.95
2018-12-20T05:44:23.583Z,73.51
2018-12-20T05:45:26.151Z,73.37
2018-12-20T05:46:28.633Z,73.18
2018-12-20T05:47:31.116Z,72.89
2018-12-20T05:48:33.605Z,73.14
2018-12-20T05:49:36.126Z,72.94
2018-12-20T05:50:38.620Z,72.78
2018-12-20T05:51:41.353Z,72.76
2018-12-20T05:52:43.900Z,73.03
2018-12-20T05:53:51.653Z,72.85
2018-12-20T05:54:54.276Z,72.56
2018-12-20T05:55:57.131Z,72.52
2018-12-20T05:56:59.685Z,72.75
2018-12-20T05:58:02.200Z,72.66
2018-12-20T05:59:04.755Z,72.49
2018-12-20T06:00:09.399Z,73.15
2018-12-20T06:01:11.936Z,73.21
2018-12-20T06:02:14.474Z,73.06
2018-12-20T06:03:17.070Z,73.25
2018-12-20T06:04:19.646Z,73.25
2018-12-20T06:05:22.132Z,73.32
2018-12-20T06:06:24.690Z,72.92
2018-12-20T06:07:27.195Z,73.13
2018-12-20T06:08:29.685Z,73.36
2018-12-20T06:09:32.301Z,72.79
2018-12-20T06:10:34.922Z,73.21
2018-12-20T06:11:37.364Z,72.71
2018-12-20T06:12:39.800Z,72.78
2018-12-20T06:13:42.411Z,73.20
2018-12-20T06:14:44.957Z,72.96
2018-12-20T06:15:47.711Z,73.08
2018-12-20T06:16:50.362Z,72.66
2018-12-20T06:17:53.220Z,73.14
2018-12-20T06:18:55.976Z,73.02
2018-12-20T06:19:58.559Z,72.71
2018-12-20T06:21:01.242Z,72.99
2018-12-20T06:22:04.058Z,72.67
2018-12-20T06:23:06.812Z,73.16
2018-12-20T06:24:09.371Z,72.96
2018-12-20T06:25:11.827Z,72.87
2018-12-20T06:26:14.324Z,73.05
2018-12-20T06:27:16.754Z,72.40
2018-12-20T06:28:19.187Z,72.59
2018-12-20T06:29:21.630Z,73.56
2018-12-20T06:30:24.110Z,72.72
2018-12-20T06:31:26.567Z,72.50
2018-12-20T06:32:29.004Z,73.09
2018-12-20T06:33:31.467Z,72.61
2018-12-20T06:34:33.903Z,73.38
2018-12-20T06:35:36.364Z,73.25
2018-12-20T06:36:38.812Z,73.02
2018-12-20T06:37:41.276Z,73.22
2018-12-20T06:38:43.711Z,73.04
2018-12-20T06:39:46.176Z,72.83
2018-12-20T06:40:48.642Z,73.25
2018-12-20T06:41:51.096Z,73.66
2018-12-20T06:42:53.553Z,73.16
2018-12-20T06:43:55.988Z,73.36
2018-12-20T06:44:58.451Z,73.26
2018-12-20T06:46:00.911Z,73.10
2018-12-20T06:47:03.367Z,73.40
2018-12-20T06:48:05.795Z,73.45
2018-12-20T06:49:08.244Z,73.00
2018-12-20T06:50:10.679Z,73.25
2018-12-20T06:51:13.151Z,72.96
2018-12-20T06:52:15.608Z,73.18
2018-12-20T06:53:18.038Z,72.72
2018-12-20T06:54:20.484Z,73.27
2018-12-20T06:55:23.042Z,72.76
2018-12-20T06:56:25.500Z,73.16
2018-12-20T06:57:29.544Z,73.66
2018-12-20T06:58:32.241Z,72.78
2018-12-20T06:59:34.693Z,72.98
2018-12-20T07:00:37.210Z,72.88
2018-12-20T07:01:39.714Z,73.43
2018-12-20T07:02:42.245Z,73.21
2018-12-20T07:03:44.710Z,72.67
2018-12-20T07:04:47.153Z,72.98
2018-12-20T07:05:49.592Z,72.92
2018-12-20T07:06:52.050Z,72.46
2018-12-20T07:07:54.520Z,72.79
2018-12-20T07:08:56.957Z,72.58
2018-12-20T07:09:59.395Z,72.80
2018-12-20T07:11:01.842Z,72.35
2018-12-20T07:12:04.306Z,73.03
2018-12-20T07:13:06.751Z,72.94
2018-12-20T07:14:09.283Z,72.53
2018-12-20T07:15:11.745Z,72.56
2018-12-20T07:16:14.211Z,72.70
2018-12-20T07:17:16.708Z,72.63
2018-12-20T07:18:19.210Z,72.74
2018-12-20T07:19:21.728Z,72.51
2018-12-20T07:20:24.171Z,72.05
2018-12-20T07:21:26.650Z,72.10
2018-12-20T07:22:29.112Z,72.52
2018-12-20T07:23:31.687Z,72.17
2018-12-20T07:24:34.147Z,72.05
2018-12-20T07:25:36.624Z,72.39
2018-12-20T07:26:39.104Z,71.79
2018-12-20T07:27:41.684Z,72.06
2018-12-20T07:28:44.373Z,72.46
2018-12-20T07:29:46.810Z,72.29
2018-12-20T07:30:49.286Z,72.72
2018-12-20T07:31:51.743Z,72.26
2018-12-20T07:32:54.193Z,72.58
2018-12-20T07:33:56.830Z,72.82
2018-12-20T07:34:59.322Z,72.12
2018-12-20T07:36:01.780Z,72.32
2018-12-20T07:37:04.312Z,72.26
2018-12-20T07:38:06.849Z,72.11
2018-12-20T07:39:09.335Z,72.36
2018-12-20T07:40:11.826Z,72.02
2018-12-20T07:41:14.764Z,72.18
2018-12-20T07:42:17.311Z,72.44
2018-12-20T07:43:19.788Z,72.57
2018-12-20T07:44:22.281Z,72.31
2018-12-20T07:45:24.766Z,71.90
2018-12-20T07:46:27.258Z,72.45
2018-12-20T07:47:29.718Z,72.17
2018-12-20T07:48:32.514Z,71.86
2018-12-20T07:49:35.127Z,71.98
2018-12-20T07:50:37.891Z,72.03
2018-12-20T07:51:41.784Z,72.02
2018-12-20T07:52:44.608Z,71.71
2018-12-20T07:53:47.101Z,71.77
2018-12-20T07:54:49.793Z,72.14
2018-12-20T07:55:52.315Z,71.92
2018-12-20T07:56:55.108Z,72.37
2018-12-20T07:57:57.842Z,71.75
2018-12-20T07:59:00.576Z,71.53
2018-12-20T08:00:03.610Z,71.40
2018-12-20T08:01:06.422Z,71.77
2018-12-20T08:02:09.002Z,71.80
2018-12-20T08:03:11.463Z,71.48
2018-12-20T08:04:13.924Z,72.08
2018-12-20T08:05:16.544Z,71.98
2018-12-20T08:06:19.033Z,71.59
2018-12-20T08:07:21.494Z,71.41
2018-12-20T08:08:23.984Z,71.45
2018-12-20T08:09:26.434Z,71.59
2018-12-20T08:10:28.898Z,71.35
2018-12-20T08:11:31.364Z,71.53
2018-12-20T08:12:33.845Z,71.82
2018-12-20T08:13:36.419Z,71.23
2018-12-20T08:14:39.014Z,71.96
2018-12-20T08:15:43.259Z,71.49
2018-12-20T08:16:46.412Z,71.42
2018-12-20T08:17:49.067Z,71.69
2018-12-20T08:18:51.689Z,71.19
2018-12-20T08:19:54.345Z,71.71
2018-12-20T08:20:56.913Z,71.23
2018-12-20T08:22:02.285Z,71.13
2018-12-20T08:23:05.064Z,71.49
2018-12-20T08:24:07.543Z,71.54
2018-12-20T08:25:10.090Z,71.08
2018-12-20T08:26:12.615Z,71.38
2018-12-20T08:27:15.177Z,71.57
2018-12-20T08:28:17.644Z,71.15
2018-12-20T08:29:20.121Z,71.57
2018-12-20T08:30:22.593Z,70.98
2018-12-20T08:31:25.121Z,71.07
2018-12-20T08:32:27.596Z,71.18
2018-12-20T08:33:30.132Z,70.90
2018-12-20T08:34:32.575Z,71.36
2018-12-20T08:35:35.035Z,71.21
2018-12-20T08:36:37.549Z,70.78
2018-12-20T08:37:40.024Z,71.31
2018-12-20T08:38:42.476Z,70.62
2018-12-20T08:39:44.957Z,70.69
2018-12-20T08:40:47.415Z,70.95
2018-12-20T08:41:49.894Z,70.56
2018-12-20T08:42:52.360Z,70.43
2018-12-20T08:43:54.801Z,70.93
2018-12-20T08:44:57.231Z,70.61
2018-12-20T08:45:59.803Z,70.72
2018-12-20T08:47:02.335Z,70.88
2018-12-20T08:48:04.787Z,71.04
2018-12-20T08:49:07.256Z,71.42
2018-12-20T08:50:10.121Z,70.95
2018-12-20T08:51:12.695Z,71.07
2018-12-20T08:52:15.179Z,71.27
2018-12-20T08:53:18.000Z,70.63
2018-12-20T08:54:20.492Z,70.38
2018-12-20T08:55:23.084Z,70.65
2018-12-20T08:56:25.537Z,70.54
2018-12-20T08:57:28.002Z,70.65
2018-12-20T08:58:30.477Z,70.20
2018-12-20T08:59:34.039Z,70.09
2018-12-20T09:00:36.493Z,70.08
2018-12-20T09:01:39.061Z,70.32
2018-12-20T09:02:41.614Z,70.43
2018-12-20T09:03:45.123Z,70.01
2018-12-20T09:04:47.592Z,70.43
2018-12-20T09:05:50.062Z,70.10
2018-12-20T09:06:52.600Z,69.84
2018-12-20T09:07:55.814Z,70.20
2018-12-20T09:08:58.263Z,69.73
2018-12-20T09:10:01.070Z,70.22
2018-12-20T09:11:03.555Z,70.07
2018-12-20T09:12:06.139Z,69.54
2018-12-20T09:13:09.793Z,69.38
2018-12-20T09:14:12.543Z,69.64
2018-12-20T09:15:15.132Z,69.23
2018-12-20T09:16:17.676Z,68.98
2018-12-20T09:17:20.142Z,69.24
2018-12-20T09:18:22.607Z,69.14
2018-12-20T09:19:25.054Z,68.67
2018-12-20T09:20:32.693Z,68.61
2018-12-20T09:21:32.670Z,68.42
2018-12-20T09:22:35.144Z,68.26
2018-12-20T09:23:37.586Z,68.59
2018-12-20T09:24:40.027Z,68.84
2018-12-20T09:25:42.478Z,68.87
2018-12-20T09:26:45.020Z,68.80
2018-12-20T09:27:47.475Z,68.70
2018-12-20T09:28:49.913Z,69.18
2018-12-20T09:29:52.363Z,68.87
2018-12-20T09:30:54.798Z,68.51
2018-12-20T09:31:57.251Z,69.08
2018-12-20T09:32:59.799Z,68.67
2018-12-20T09:34:02.223Z,68.41
2018-12-20T09:35:05.042Z,67.71
2018-12-20T09:36:07.479Z,67.80
2018-12-20T09:37:10.006Z,68.39
2018-12-20T09:38:12.432Z,68.03
2018-12-20T09:39:15.024Z,68.16
2018-12-20T09:40:17.458Z,67.62
2018-12-20T09:41:19.903Z,67.59
2018-12-20T09:42:22.346Z,67.14
2018-12-20T09:43:25.018Z,67.31
2018-12-20T09:44:27.638Z,67.08
2018-12-20T09:45:30.067Z,67.05
2018-12-20T09:46:32.507Z,67.20
2018-12-20T09:47:40.551Z,66.71
2018-12-20T09:48:43.015Z,66.68
2018-12-20T09:49:45.465Z,66.51
2018-12-20T09:50:47.905Z,66.88
2018-12-20T09:51:50.337Z,66.10
2018-12-20T09:52:52.788Z,66.41
2018-12-20T09:53:55.223Z,66.30
2018-12-20T09:54:57.656Z,66.77
2018-12-20T09:56:00.090Z,65.70
2018-12-20T09:57:02.540Z,65.74
2018-12-20T09:58:05.005Z,65.93
2018-12-20T09:59:07.445Z,66.10
2018-12-20T10:00:10.170Z,65.83
2018-12-20T10:01:12.605Z,64.56
2018-12-20T10:02:15.068Z,64.81
2018-12-20T10:03:17.510Z,65.22
2018-12-20T10:04:19.949Z,64.58
2018-12-20T10:05:22.405Z,64.92
2018-12-20T10:06:24.839Z,65.23
2018-12-20T10:07:27.304Z,64.76
2018-12-20T10:08:29.871Z,64.68
2018-12-20T10:09:32.480Z,64.82
2018-12-20T10:10:34.936Z,64.39
2018-12-20T10:11:37.395Z,64.66
2018-12-20T10:12:39.856Z,64.30
2018-12-20T10:13:42.305Z,64.45
2018-12-20T10:14:44.769Z,64.15
2018-12-20T10:15:47.555Z,63.86
2018-12-20T10:16:50.028Z,63.96
2018-12-20T10:17:52.488Z,63.97
2018-12-20T10:18:54.930Z,63.76
2018-12-20T10:19:57.363Z,63.54
2018-12-20T10:20:59.804Z,63.58
2018-12-20T10:22:02.251Z,63.47
2018-12-20T10:23:04.822Z,63.59
2018-12-20T10:24:07.615Z,63.51
2018-12-20T10:25:10.388Z,63.34
2018-12-20T10:26:12.823Z,63.56
2018-12-20T10:27:15.263Z,63.33
2018-12-20T10:28:17.730Z,63.64
2018-12-20T10:29:20.178Z,63.13
2018-12-20T10:30:22.632Z,63.70
2018-12-20T10:31:25.078Z,63.59
2018-12-20T10:32:27.524Z,63.55
2018-12-20T10:33:29.977Z,63.21
2018-12-20T10:34:32.435Z,63.46
2018-12-20T10:35:34.869Z,63.05
2018-12-20T10:36:37.314Z,62.52
2018-12-20T10:37:39.750Z,62.83
2018-12-20T10:38:42.211Z,63.03
2018-12-20T10:39:44.708Z,63.17
2018-12-20T10:40:47.226Z,63.00
2018-12-20T10:41:49.664Z,62.85
2018-12-20T10:42:52.095Z,63.01
2018-12-20T10:43:54.559Z,63.31
2018-12-20T10:44:57.000Z,62.29
2018-12-20T10:45:59.453Z,62.60
2018-12-20T10:47:07.577Z,62.21
2018-12-20T10:48:10.015Z,61.48
2018-12-20T10:49:12.473Z,62.13
2018-12-20T10:50:14.931Z,61.55
2018-12-20T10:51:17.382Z,62.00
2018-12-20T10:52:19.903Z,62.00
2018-12-20T10:53:22.540Z,62.32
2018-12-20T10:54:24.994Z,61.56
2018-12-20T10:55:27.450Z,62.14
2018-12-20T10:56:29.912Z,61.85
2018-12-20T10:57:32.346Z,60.70
2018-12-20T10:58:34.796Z,60.50
2018-12-20T10:59:37.230Z,60.02
2018-12-20T11:00:45.188Z,59.74
2018-12-20T11:01:49.688Z,58.53
2018-12-20T11:02:57.808Z,57.97
2018-12-20T11:04:05.833Z,57.41
2018-12-20T11:05:25.949Z,57.55
2018-12-20T11:06:34.070Z,57.84
2018-12-20T11:07:42.212Z,58.05
2018-12-20T11:08:46.724Z,57.91
2018-12-20T11:09:54.855Z,57.55
2018-12-20T11:11:04.949Z,57.02
2018-12-20T11:12:08.624Z,57.41
2018-12-20T11:13:25.793Z,57.38
2018-12-20T11:14:28.226Z,57.56
2018-12-20T11:15:30.678Z,57.06
2018-12-20T11:16:33.120Z,57.37
2018-12-20T11:17:37.539Z,57.03
2018-12-20T11:18:40.004Z,56.75
2018-12-20T11:19:42.454Z,56.88
2018-12-20T11:20:44.923Z,57.53
2018-12-20T11:21:47.347Z,56.64
2018-12-20T11:22:49.880Z,57.23
2018-12-20T11:23:52.325Z,56.31
2018-12-20T11:24:54.767Z,56.51
2018-12-20T11:25:57.224Z,56.79
2018-12-20T11:26:59.668Z,56.64
2018-12-20T11:28:02.103Z,56.33
2018-12-20T11:29:04.551Z,57.17
2018-12-20T11:30:08.304Z,56.82
2018-12-20T11:31:11.063Z,56.55
2018-12-20T11:32:13.644Z,56.84
2018-12-20T11:33:16.084Z,56.63
2018-12-20T11:34:18.546Z,57.24
2018-12-20T11:35:20.998Z,57.43
2018-12-20T11:36:23.451Z,57.36
2018-12-20T11:37:25.925Z,57.90
2018-12-20T11:38:28.458Z,57.70
2018-12-20T11:39:30.889Z,58.23
2018-12-20T11:40:33.326Z,57.45
2018-12-20T11:41:35.767Z,57.57
2018-12-20T11:42:38.220Z,56.91
2018-12-20T11:43:40.717Z,57.24
2018-12-20T11:44:43.153Z,57.79
2018-12-20T11:45:45.586Z,57.77
2018-12-20T11:46:49.075Z,57.83
2018-12-20T11:47:51.708Z,57.55
2018-12-20T11:48:54.135Z,57.28
2018-12-20T11:49:56.571Z,57.65
2018-12-20T11:50:59.041Z,57.37
2018-12-20T11:52:01.579Z,56.52
2018-12-20T11:53:04.026Z,56.45
2018-12-20T11:54:06.469Z,56.81
2018-12-20T11:55:08.991Z,56.37
2018-12-20T11:56:11.469Z,56.55
2018-12-20T11:57:13.945Z,56.16
2018-12-20T11:58:16.392Z,55.88
2018-12-20T11:59:18.831Z,55.38
2018-12-20T12:00:21.316Z,55.11
2018-12-20T12:01:23.760Z,55.20
2018-12-20T12:02:26.209Z,54.67
2018-12-20T12:03:28.660Z,54.71
2018-12-20T12:04:31.100Z,54.64
2018-12-20T12:05:33.532Z,53.40
2018-12-20T12:06:35.974Z,54.29
2018-12-20T12:07:38.439Z,53.82
2018-12-20T12:08:40.890Z,54.14
2018-12-20T12:09:43.384Z,54.17
2018-12-20T12:10:45.865Z,54.30
2018-12-20T12:11:48.325Z,54.16
2018-12-20T12:12:50.767Z,54.16
2018-12-20T12:13:53.228Z,53.48
2018-12-20T12:14:55.758Z,53.56
2018-12-20T12:15:58.298Z,53.56
2018-12-20T12:17:00.752Z,53.78
2018-12-20T12:18:03.211Z,52.39
2018-12-20T12:19:05.673Z,52.71
2018-12-20T12:20:08.214Z,52.56
2018-12-20T12:21:10.652Z,52.50
2018-12-20T12:22:13.088Z,52.40
2018-12-20T12:23:15.552Z,52.64
2018-12-20T12:24:18.004Z,52.59
2018-12-20T12:25:20.447Z,52.53
2018-12-20T12:26:22.880Z,52.51
2018-12-20T12:27:25.399Z,52.39
2018-12-20T12:28:27.856Z,52.35
2018-12-20T12:29:30.565Z,52.98
2018-12-20T12:30:33.000Z,52.83
2018-12-20T12:31:35.463Z,51.70
2018-12-20T12:32:37.904Z,51.66
2018-12-20T12:33:40.388Z,52.45
2018-12-20T12:34:42.847Z,52.30
2018-12-20T12:35:45.300Z,52.08
2018-12-20T12:36:47.754Z,52.12
2018-12-20T12:37:50.196Z,52.43
2018-12-20T12:38:52.662Z,51.89
2018-12-20T12:39:55.160Z,52.25
2018-12-20T12:40:57.616Z,52.97
2018-12-20T12:42:00.050Z,52.56
2018-12-20T12:43:02.634Z,52.77
2018-12-20T12:44:05.185Z,53.14
2018-12-20T12:45:07.738Z,52.25
2018-12-20T12:46:10.175Z,52.76
2018-12-20T12:47:12.617Z,52.54
2018-12-20T12:48:15.099Z,52.54
2018-12-20T12:49:17.568Z,52.30
2018-12-20T12:50:20.029Z,52.54
2018-12-20T12:51:22.495Z,52.00
2018-12-20T12:52:25.037Z,51.84
2018-12-20T12:53:27.519Z,51.88
2018-12-20T12:54:30.102Z,51.58
2018-12-20T12:55:32.576Z,52.09
2018-12-20T12:56:35.028Z,51.78
2018-12-20T12:57:37.500Z,52.39
2018-12-20T12:58:39.943Z,51.80
2018-12-20T12:59:42.401Z,51.49
2018-12-20T13:00:44.892Z,51.87
2018-12-20T13:01:47.357Z,51.49
2018-12-20T13:02:49.892Z,52.05
2018-12-20T13:03:52.341Z,52.00
2018-12-20T13:04:54.935Z,51.83
2018-12-20T13:05:57.399Z,51.81
2018-12-20T13:06:59.843Z,52.15
2018-12-20T13:08:02.655Z,52.55
2018-12-20T13:09:06.266Z,52.55
2018-12-20T13:10:08.824Z,52.89
2018-12-20T13:11:11.432Z,52.73
2018-12-20T13:12:13.875Z,53.02
2018-12-20T13:13:16.316Z,53.09
2018-12-20T13:14:18.756Z,53.17
2018-12-20T13:15:21.213Z,52.91
2018-12-20T13:16:23.676Z,52.61
2018-12-20T13:17:26.119Z,52.56
2018-12-20T13:18:28.589Z,52.85
2018-12-20T13:19:31.037Z,53.34
2018-12-20T13:20:33.480Z,53.12
2018-12-20T13:21:35.963Z,53.26
2018-12-20T13:22:38.387Z,53.53
2018-12-20T13:23:40.871Z,53.60
2018-12-20T13:24:43.317Z,52.54
2018-12-20T13:25:45.765Z,52.72
2018-12-20T13:26:48.231Z,53.27
2018-12-20T13:27:50.672Z,53.30
2018-12-20T13:28:53.112Z,53.08